Time;durP1;ratioP1;P1;durP2;ratioP2;P2;SDS_P1;SDS_P2;PMS_P1;PMS_P2;Temp;Humidity;BMP_temperature;BMP_pressure;BME280_temperature;BME280_humidity;BME280_pressure;Samples;Min_cycle;Max_cycle;Signal;HPM_P1;HPM_P2
2022/12/14 00:01:07;;;;;;;8.10;6.10;;;0.60;75.60;;;;;;5035663;28;20061;-66
2022/12/14 00:03:34;;;;;;;8.45;6.30;;;0.70;75.90;;;;;;5040320;28;20021;-67
2022/12/14 00:06:08;;;;;;;6.90;5.72;;;0.70;75.70;;;;;;5035585;28;20045;-51
2022/12/14 00:08:34;;;;;;;7.97;5.88;;;0.70;75.40;;;;;;5037919;28;20032;-51
2022/12/14 00:11:00;;;;;;;8.20;5.88;;;0.70;75.60;;;;;;5025420;28;20033;-55
2022/12/14 00:13:25;;;;;;;7.88;5.97;;;0.70;75.30;;;;;;5034054;28;20056;-56
2022/12/14 00:15:51;;;;;;;8.43;5.93;;;0.70;75.20;;;;;;5044618;28;20037;-56
2022/12/14 00:18:17;;;;;;;7.93;6.00;;;0.60;75.30;;;;;;5036738;28;20095;-59
2022/12/14 00:20:42;;;;;;;6.68;5.40;;;0.70;75.60;;;;;;5047268;28;20031;-61
2022/12/14 00:23:08;;;;;;;6.90;5.45;;;0.70;75.50;;;;;;5032113;28;20080;-58
2022/12/14 00:25:33;;;;;;;7.75;5.45;;;0.70;75.60;;;;;;5032425;28;20037;-55
2022/12/14 00:27:59;;;;;;;6.47;5.13;;;0.80;75.50;;;;;;5047838;28;20040;-54
2022/12/14 00:30:25;;;;;;;8.80;6.13;;;0.90;75.20;;;;;;5034988;28;20018;-62
2022/12/14 00:32:50;;;;;;;6.63;5.63;;;1.00;75.00;;;;;;5034444;28;20461;-57
2022/12/14 00:35:17;;;;;;;6.93;5.65;;;1.00;74.70;;;;;;5043619;28;20545;-61
2022/12/14 00:37:43;;;;;;;7.55;5.70;;;1.10;74.70;;;;;;5027511;28;20036;-61
2022/12/14 00:40:09;;;;;;;6.35;5.13;;;1.20;74.50;;;;;;5034669;28;20388;-61
2022/12/14 00:42:35;;;;;;;7.28;5.18;;;1.10;74.30;;;;;;5047541;28;20112;-56
2022/12/14 00:45:03;;;;;;;7.88;5.65;;;1.20;74.40;;;;;;5034417;28;20124;-55
2022/12/14 00:47:29;;;;;;;8.15;5.82;;;1.20;74.20;;;;;;5034699;28;20025;-50
2022/12/14 00:49:54;;;;;;;7.10;5.30;;;1.30;74.20;;;;;;5030787;28;20021;-48
2022/12/14 00:52:20;;;;;;;6.70;5.45;;;1.30;74.20;;;;;;5042762;28;20052;-55
2022/12/14 00:54:46;;;;;;;6.07;5.07;;;1.40;74.10;;;;;;5028360;28;20037;-56
2022/12/14 00:57:12;;;;;;;7.70;4.97;;;1.40;73.90;;;;;;5028519;28;20079;-55
2022/12/14 00:59:37;;;;;;;7.78;5.13;;;1.50;73.80;;;;;;5034405;28;20031;-54
2022/12/14 01:02:03;;;;;;;7.45;5.40;;;1.50;73.90;;;;;;5034383;28;20033;-66
2022/12/14 01:04:29;;;;;;;7.03;5.45;;;1.60;74.10;;;;;;5026426;28;20045;-67
2022/12/14 01:06:55;;;;;;;8.18;5.13;;;1.70;74.00;;;;;;5028110;28;20029;-66
2022/12/14 01:09:23;;;;;;;6.78;5.13;;;1.80;73.70;;;;;;5035649;28;20025;-64
2022/12/14 01:11:48;;;;;;;7.20;5.55;;;1.80;73.70;;;;;;5038736;28;20119;-66
2022/12/14 01:14:16;;;;;;;6.95;5.60;;;1.90;73.70;;;;;;5029379;28;20120;-64
2022/12/14 01:16:42;;;;;;;6.75;5.15;;;2.00;73.50;;;;;;5043693;28;20032;-67
2022/12/14 01:19:10;;;;;;;7.60;5.43;;;2.00;73.20;;;;;;5039233;28;20017;-66
2022/12/14 01:21:36;;;;;;;8.50;6.00;;;2.00;73.10;;;;;;5045048;28;20096;-66
2022/12/14 01:24:03;;;;;;;7.25;5.55;;;2.00;72.90;;;;;;5035815;28;20375;-63
2022/12/14 01:26:32;;;;;;;9.52;5.90;;;2.00;73.00;;;;;;5031606;28;20040;-69
2022/12/14 01:28:59;;;;;;;8.30;5.63;;;2.00;72.90;;;;;;5065898;28;20029;-68
2022/12/14 01:31:32;;;;;;;7.70;5.45;;;2.10;72.70;;;;;;5039498;28;20041;-68
2022/12/14 01:33:58;;;;;;;8.32;5.80;;;2.00;72.70;;;;;;5048769;28;20029;-68
2022/12/14 01:36:30;;;;;;;7.90;6.00;;;2.00;72.50;;;;;;5052918;28;20036;-68
2022/12/14 01:39:01;;;;;;;7.00;5.50;;;2.00;72.40;;;;;;5026204;28;20440;-66
2022/12/14 01:41:34;;;;;;;8.70;5.93;;;2.00;72.30;;;;;;5025694;28;20029;-60
2022/12/14 01:44:08;;;;;;;7.10;5.38;;;2.00;72.10;;;;;;5024242;28;20033;-65
2022/12/14 01:46:39;;;;;;;7.50;5.35;;;2.00;72.10;;;;;;5033150;28;20025;-65
2022/12/14 01:49:42;;;;;;;7.80;5.75;;;2.00;72.10;;;;;;5034025;28;20418;-69
2022/12/14 01:52:32;;;;;;;7.63;5.50;;;2.00;72.00;;;;;;5025302;28;20120;-63
2022/12/14 01:55:12;;;;;;;8.48;6.03;;;1.90;71.80;;;;;;5037431;28;20021;-66
2022/12/14 01:57:56;;;;;;;6.93;5.40;;;1.90;71.70;;;;;;5039681;28;20431;-68
2022/12/14 02:00:22;;;;;;;7.85;6.20;;;1.80;71.70;;;;;;5047058;28;20044;-51
2022/12/14 02:02:59;;;;;;;8.77;6.05;;;1.80;71.50;;;;;;5035527;28;20029;-51
2022/12/14 02:05:25;;;;;;;7.72;6.00;;;1.70;71.50;;;;;;5041960;28;20535;-51
2022/12/14 02:07:53;;;;;;;7.50;5.78;;;1.60;71.80;;;;;;5052037;28;20460;-48
2022/12/14 02:10:22;;;;;;;8.90;6.22;;;1.50;72.00;;;;;;5041065;28;20351;-66
2022/12/14 02:12:51;;;;;;;6.95;5.45;;;1.50;72.30;;;;;;5033267;28;20105;-67
2022/12/14 02:15:17;;;;;;;8.85;5.90;;;1.50;72.30;;;;;;5034740;28;20387;-68
2022/12/14 02:17:45;;;;;;;7.10;5.20;;;1.50;72.60;;;;;;5035600;28;20079;-65
2022/12/14 02:20:13;;;;;;;7.78;5.82;;;1.60;72.50;;;;;;5034168;28;20439;-51
2022/12/14 02:23:27;;;;;;;8.82;5.97;;;1.60;72.40;;;;;;5033198;28;20033;-47
2022/12/14 02:26:07;;;;;;;8.20;5.88;;;1.60;72.20;;;;;;5030327;28;20037;-64
2022/12/14 02:29:27;;;;;;;7.72;6.45;;;1.70;72.50;;;;;;5034300;28;20022;-67
2022/12/14 02:32:26;;;;;;;8.57;6.43;;;1.70;72.30;;;;;;5010097;28;20168;-65
2022/12/14 02:34:58;;;;;;;8.40;6.00;;;1.80;72.20;;;;;;5031952;28;20103;-67
2022/12/14 02:37:49;;;;;;;9.43;6.13;;;1.80;72.30;;;;;;5031933;28;20060;-56
2022/12/14 02:40:50;;;;;;;7.75;5.97;;;1.80;72.20;;;;;;5041554;28;20035;-58
2022/12/14 02:43:31;;;;;;;7.95;6.15;;;1.90;72.10;;;;;;5035285;28;20095;-56
2022/12/14 02:46:24;;;;;;;7.97;6.30;;;1.90;71.70;;;;;;5045313;28;20041;-48
2022/12/14 02:49:19;;;;;;;9.10;6.57;;;1.90;71.70;;;;;;5026429;28;20041;-50
2022/12/14 02:51:56;;;;;;;8.32;6.85;;;1.80;71.90;;;;;;5027980;28;20095;-54
2022/12/14 02:54:33;;;;;;;8.13;6.15;;;1.80;71.80;;;;;;5035677;28;20037;-52
2022/12/14 02:57:10;;;;;;;8.90;7.03;;;1.70;72.10;;;;;;5052021;28;20040;-58
2022/12/14 02:59:36;;;;;;;9.02;6.60;;;1.70;72.30;;;;;;5043095;28;20095;-58
2022/12/14 03:02:03;;;;;;;10.85;7.75;;;1.70;72.40;;;;;;5029823;28;20034;-68
2022/12/14 03:04:29;;;;;;;9.40;7.15;;;1.70;72.50;;;;;;5036152;28;20045;-67
2022/12/14 03:07:01;;;;;;;9.80;6.88;;;1.70;72.30;;;;;;5034327;28;20501;-57
2022/12/14 03:09:28;;;;;;;8.75;6.50;;;1.70;72.60;;;;;;5044498;28;20356;-54
2022/12/14 03:12:03;;;;;;;9.93;7.20;;;1.70;72.60;;;;;;5052195;28;20032;-53
2022/12/14 03:14:36;;;;;;;8.63;7.28;;;1.80;72.60;;;;;;5026724;28;20376;-50
2022/12/14 03:17:24;;;;;;;9.43;7.40;;;1.80;72.50;;;;;;5031301;28;20108;-56
2022/12/14 03:19:54;;;;;;;10.90;7.32;;;1.90;72.40;;;;;;5032509;28;20105;-55
2022/12/14 03:22:25;;;;;;;10.82;7.78;;;1.90;72.10;;;;;;5032668;28;20349;-56
2022/12/14 03:24:56;;;;;;;10.98;7.82;;;1.90;72.20;;;;;;5031508;28;20128;-56
2022/12/14 03:27:31;;;;;;;10.00;7.45;;;1.80;72.30;;;;;;5035566;28;20033;-56
2022/12/14 03:30:09;;;;;;;9.68;7.20;;;1.80;72.30;;;;;;5036498;28;20034;-56
2022/12/14 03:32:40;;;;;;;9.55;7.57;;;1.70;72.50;;;;;;5036661;28;20121;-55
2022/12/14 03:35:21;;;;;;;10.48;8.00;;;1.70;72.50;;;;;;5036705;28;20132;-56
2022/12/14 03:38:02;;;;;;;10.35;8.07;;;1.70;72.50;;;;;;5036498;28;20029;-53
2022/12/14 03:40:41;;;;;;;12.57;9.02;;;1.60;72.70;;;;;;5040336;28;20033;-51
2022/12/14 03:43:17;;;;;;;9.57;7.68;;;1.60;72.80;;;;;;5036261;28;20032;-51
2022/12/14 03:46:16;;;;;;;11.07;8.02;;;1.50;73.00;;;;;;5036941;28;20440;-61
2022/12/14 03:49:00;;;;;;;13.65;8.73;;;1.50;73.00;;;;;;5025639;28;20036;-61
2022/12/14 03:51:34;;;;;;;10.15;7.70;;;1.50;73.40;;;;;;5038018;28;20033;-56
2022/12/14 03:54:07;;;;;;;9.73;7.47;;;1.60;73.30;;;;;;5036697;28;20109;-56
2022/12/14 03:57:05;;;;;;;10.85;7.57;;;1.60;73.30;;;;;;5041770;28;20104;-54
2022/12/14 03:59:49;;;;;;;12.65;8.35;;;1.70;73.30;;;;;;5040838;28;20491;-54
2022/12/14 04:04:47;;;;;;;11.30;7.53;;;1.80;72.50;;;;;;5045855;27;1563136;-53
2022/12/14 04:07:40;;;;;;;9.63;7.22;;;1.90;72.90;;;;;;5104551;28;20038;-56
2022/12/14 04:18:55;;;;;;;9.73;7.35;;;2.20;72.70;;;;;;5089794;28;20408;-52
2022/12/14 04:21:33;;;;;;;9.15;7.10;;;2.20;72.70;;;;;;5100480;28;20035;-52
2022/12/14 04:27:05;;;;;;;10.75;8.00;;;2.20;72.30;;;;;;5090306;28;20063;-57
2022/12/14 04:32:39;;;;;;;10.38;7.90;;;2.10;72.80;;;;;;5106042;28;20501;-56
2022/12/14 04:35:08;;;;;;;13.30;8.90;;;2.00;72.50;;;;;;5106015;28;20063;-56
2022/12/14 04:37:38;;;;;;;11.43;8.43;;;1.90;72.50;;;;;;5098055;28;20465;-56
2022/12/14 04:40:21;;;;;;;11.05;8.75;;;1.80;72.50;;;;;;5093800;28;20108;-54
2022/12/14 04:42:55;;;;;;;11.43;8.23;;;1.80;72.70;;;;;;5097195;28;20035;-56
2022/12/14 04:45:31;;;;;;;12.90;9.02;;;1.80;73.00;;;;;;5107855;28;20036;-54
2022/12/14 04:48:08;;;;;;;11.32;8.60;;;1.90;72.90;;;;;;5097955;28;20048;-55
2022/12/14 04:50:40;;;;;;;11.10;8.30;;;1.90;72.70;;;;;;5093836;28;20071;-56
2022/12/14 04:53:22;;;;;;;9.63;7.20;;;2.00;72.20;;;;;;5094895;28;20062;-55
2022/12/14 04:56:00;;;;;;;10.27;7.45;;;2.00;72.00;;;;;;5088850;28;20055;-56
2022/12/14 04:58:29;;;;;;;10.48;7.93;;;2.00;72.00;;;;;;5095198;28;20034;-56
2022/12/14 05:01:24;;;;;;;10.55;8.02;;;2.00;72.00;;;;;;5105305;28;20028;-60
2022/12/14 05:04:16;;;;;;;10.88;8.23;;;2.00;71.70;;;;;;5104304;28;20104;-61
2022/12/14 05:07:20;;;;;;;10.82;7.80;;;2.00;71.50;;;;;;5074262;28;20131;-62
2022/12/14 05:09:54;;;;;;;9.70;7.20;;;1.90;71.50;;;;;;5090178;28;20473;-62
2022/12/14 05:12:39;;;;;;;11.95;8.10;;;1.90;71.40;;;;;;5116404;28;20039;-61
2022/12/14 05:15:06;;;;;;;10.65;7.88;;;1.90;71.20;;;;;;5109356;28;20104;-62
2022/12/14 05:17:37;;;;;;;9.60;7.50;;;1.90;71.20;;;;;;5095624;28;20027;-61
2022/12/14 05:20:04;;;;;;;10.55;7.70;;;1.90;71.20;;;;;;5103925;28;20520;-61
2022/12/14 05:22:30;;;;;;;10.65;7.65;;;1.90;71.20;;;;;;5112528;28;20062;-62
2022/12/14 05:24:56;;;;;;;11.05;7.63;;;1.90;71.00;;;;;;5096539;28;20145;-62
2022/12/14 05:27:22;;;;;;;10.90;8.38;;;1.80;70.80;;;;;;5093067;28;20047;-63
2022/12/14 05:29:47;;;;;;;11.13;8.02;;;1.80;70.80;;;;;;5102980;28;20036;-61
2022/12/14 05:32:13;;;;;;;10.63;7.88;;;1.80;70.70;;;;;;5095480;28;20024;-62
2022/12/14 05:34:39;;;;;;;10.63;8.20;;;1.80;70.70;;;;;;5092940;28;20039;-63
2022/12/14 05:37:05;;;;;;;10.85;8.00;;;1.70;70.40;;;;;;5099171;28;20027;-61
2022/12/14 05:39:31;;;;;;;9.32;7.63;;;1.70;70.50;;;;;;5111934;28;20024;-61
2022/12/14 05:41:57;;;;;;;10.07;7.90;;;1.70;70.50;;;;;;5104912;28;20101;-62
2022/12/14 05:44:23;;;;;;;10.52;8.25;;;1.60;70.30;;;;;;5094965;28;21372;-61
2022/12/14 05:46:49;;;;;;;9.75;7.07;;;1.70;70.40;;;;;;5095554;28;20103;-62
2022/12/14 05:49:15;;;;;;;10.48;7.65;;;1.60;70.30;;;;;;5094385;28;20193;-62
2022/12/14 05:51:41;;;;;;;9.73;7.47;;;1.60;70.20;;;;;;5101941;28;20035;-61
2022/12/14 05:54:07;;;;;;;10.10;7.65;;;1.60;70.20;;;;;;5107367;28;20055;-62
2022/12/14 05:56:32;;;;;;;9.05;7.28;;;1.60;70.20;;;;;;5107575;28;20107;-62
2022/12/14 05:58:58;;;;;;;10.93;8.18;;;1.60;70.20;;;;;;5103495;28;20031;-62
2022/12/14 06:01:24;;;;;;;10.48;8.30;;;1.60;69.90;;;;;;5106063;28;20045;-61
2022/12/14 06:03:53;;;;;;;10.88;8.35;;;1.50;70.00;;;;;;5106576;28;20048;-61
2022/12/14 06:06:20;;;;;;;9.23;7.35;;;1.50;70.00;;;;;;5098014;28;20081;-62
2022/12/14 06:08:46;;;;;;;12.30;8.23;;;1.40;70.20;;;;;;5103896;28;20378;-62
2022/12/14 06:11:15;;;;;;;11.55;8.77;;;1.50;70.30;;;;;;5094349;28;20035;-60
2022/12/14 06:13:41;;;;;;;12.68;9.35;;;1.40;70.00;;;;;;5101728;28;20036;-62
2022/12/14 06:16:13;;;;;;;12.20;8.63;;;1.40;70.10;;;;;;5098270;28;20028;-60
2022/12/14 06:18:47;;;;;;;12.07;9.63;;;1.40;70.40;;;;;;5101427;28;20488;-61
2022/12/14 06:21:15;;;;;;;10.88;9.25;;;1.30;70.30;;;;;;5108382;28;20039;-56
2022/12/14 06:23:41;;;;;;;14.90;10.23;;;1.20;70.40;;;;;;5098269;28;20038;-55
2022/12/14 06:26:08;;;;;;;13.95;9.98;;;1.10;70.70;;;;;;5099034;28;20024;-62
2022/12/14 06:28:35;;;;;;;14.48;10.52;;;1.10;71.30;;;;;;5099217;28;20089;-62
2022/12/14 06:31:01;;;;;;;14.68;11.45;;;1.20;71.30;;;;;;5100662;28;20039;-61
2022/12/14 06:33:27;;;;;;;17.15;12.52;;;1.20;71.30;;;;;;5111422;28;20063;-62
2022/12/14 06:35:53;;;;;;;19.25;13.23;;;1.30;71.10;;;;;;5093834;28;20021;-62
2022/12/14 06:38:19;;;;;;;18.15;13.15;;;1.30;70.90;;;;;;5109973;28;20031;-62
2022/12/14 06:40:45;;;;;;;16.33;12.30;;;1.30;70.80;;;;;;5094562;28;20020;-62
2022/12/14 06:43:11;;;;;;;22.77;14.75;;;1.30;70.70;;;;;;5093378;28;20395;-61
2022/12/14 06:45:37;;;;;;;22.75;15.45;;;1.40;70.90;;;;;;5112933;28;20031;-55
2022/12/14 06:48:03;;;;;;;20.58;15.07;;;1.40;70.60;;;;;;5094915;28;20034;-56
2022/12/14 06:50:29;;;;;;;21.17;15.57;;;1.40;70.50;;;;;;5101533;28;20468;-56
2022/12/14 06:52:55;;;;;;;26.13;19.15;;;1.50;70.30;;;;;;5101869;28;20040;-56
2022/12/14 06:55:24;;;;;;;22.55;17.63;;;1.40;70.00;;;;;;5093321;28;20862;-57
2022/12/14 06:57:53;;;;;;;24.23;17.52;;;1.30;69.80;;;;;;5098101;28;20035;-56
2022/12/14 07:00:21;;;;;;;22.67;16.48;;;1.20;69.90;;;;;;5085991;28;20031;-59
2022/12/14 07:02:47;;;;;;;20.98;16.25;;;1.10;70.20;;;;;;5102173;28;20079;-49
2022/12/14 07:05:13;;;;;;;18.60;14.32;;;1.00;70.60;;;;;;5097390;28;20491;-54
2022/12/14 07:07:39;;;;;;;15.90;12.65;;;0.90;70.80;;;;;;5098626;28;20067;-53
2022/12/14 07:10:07;;;;;;;18.33;12.95;;;0.80;70.90;;;;;;5098718;28;20028;-52
2022/12/14 07:12:32;;;;;;;17.13;13.23;;;0.80;71.00;;;;;;5091719;28;20074;-57
2022/12/14 07:14:58;;;;;;;16.67;11.73;;;0.80;71.20;;;;;;5098547;28;20032;-56
2022/12/14 07:17:24;;;;;;;17.83;12.85;;;0.70;71.20;;;;;;5087470;28;20434;-58
2022/12/14 07:19:50;;;;;;;18.75;13.13;;;0.70;71.40;;;;;;5089905;28;20032;-52
2022/12/14 07:22:16;;;;;;;18.38;12.77;;;0.70;71.60;;;;;;5092513;28;20039;-57
2022/12/14 07:24:42;;;;;;;18.05;12.43;;;0.70;71.60;;;;;;5096210;28;20082;-56
2022/12/14 07:27:08;;;;;;;17.33;13.13;;;0.80;71.70;;;;;;5090594;28;20119;-54
2022/12/14 07:29:33;;;;;;;18.48;12.75;;;0.80;71.60;;;;;;5095718;28;20034;-52
2022/12/14 07:31:59;;;;;;;18.48;13.23;;;0.70;71.40;;;;;;5097883;28;20043;-58
2022/12/14 07:34:25;;;;;;;20.10;13.88;;;0.80;71.50;;;;;;5094702;28;20359;-55
2022/12/14 07:36:52;;;;;;;18.95;13.23;;;0.80;71.40;;;;;;5089939;28;20043;-58
2022/12/14 07:39:19;;;;;;;18.67;13.18;;;0.80;71.50;;;;;;5091841;28;20565;-56
2022/12/14 07:41:46;;;;;;;20.02;13.40;;;0.80;71.50;;;;;;5089281;28;20062;-55
2022/12/14 07:44:12;;;;;;;18.60;12.95;;;0.90;71.50;;;;;;5090567;28;20047;-58
2022/12/14 07:46:39;;;;;;;18.38;12.65;;;0.90;71.40;;;;;;5098020;28;20031;-55
2022/12/14 07:49:05;;;;;;;16.30;12.18;;;1.00;71.60;;;;;;5086458;28;20031;-58
2022/12/14 07:51:35;;;;;;;18.45;12.48;;;1.00;71.60;;;;;;5079771;28;21075;-59
2022/12/14 07:54:04;;;;;;;15.70;11.52;;;1.10;71.40;;;;;;5077087;28;20092;-58
2022/12/14 07:56:33;;;;;;;13.95;11.00;;;1.10;71.60;;;;;;5076285;28;20016;-55
2022/12/14 07:59:00;;;;;;;14.13;11.02;;;1.20;71.60;;;;;;5071585;28;20032;-54
2022/12/14 08:01:28;;;;;;;17.90;12.23;;;1.30;71.50;;;;;;5067179;28;20020;-58
2022/12/14 08:04:06;;;;;;;17.65;13.13;;;1.40;71.40;;;;;;5072976;28;20979;-57
2022/12/14 08:06:32;;;;;;;15.38;11.57;;;1.40;71.30;;;;;;5080771;28;20032;-57
2022/12/14 08:08:59;;;;;;;16.92;12.90;;;1.50;71.20;;;;;;5083449;28;20032;-55
2022/12/14 08:11:25;;;;;;;17.75;12.82;;;1.50;71.10;;;;;;5080110;28;20020;-56
2022/12/14 08:13:56;;;;;;;18.17;12.75;;;1.60;71.10;;;;;;5068978;28;20044;-58
2022/12/14 08:16:22;;;;;;;18.70;13.23;;;1.70;71.20;;;;;;5072977;28;20576;-56
2022/12/14 08:18:51;;;;;;;19.35;14.10;;;1.80;71.40;;;;;;5079166;28;20529;-52
2022/12/14 08:21:19;;;;;;;18.55;13.07;;;1.90;71.20;;;;;;5082843;28;20588;-56
2022/12/14 08:23:45;;;;;;;22.85;15.45;;;2.00;70.90;;;;;;5062291;28;20043;-50
2022/12/14 08:26:11;;;;;;;22.25;15.50;;;2.20;70.70;;;;;;5070294;28;20059;-57
2022/12/14 08:28:37;;;;;;;24.80;16.60;;;2.40;70.40;;;;;;5082116;28;20046;-55
2022/12/14 08:31:08;;;;;;;23.10;16.45;;;2.40;69.90;;;;;;5070728;28;20061;-60
2022/12/14 08:33:35;;;;;;;24.95;18.02;;;2.60;69.90;;;;;;5075407;28;20055;-56
2022/12/14 08:36:09;;;;;;;23.58;17.63;;;2.70;69.80;;;;;;5081910;28;20046;-55
2022/12/14 08:38:35;;;;;;;25.42;16.77;;;2.80;69.50;;;;;;5081412;28;20089;-56
2022/12/14 08:41:03;;;;;;;27.15;18.23;;;2.80;69.40;;;;;;5080112;28;20668;-54
2022/12/14 08:43:29;;;;;;;26.05;17.55;;;2.90;69.30;;;;;;5074402;28;20118;-56
2022/12/14 08:45:55;;;;;;;24.65;16.98;;;3.00;69.20;;;;;;5076302;28;20032;-57
2022/12/14 08:48:21;;;;;;;25.00;16.05;;;3.10;68.80;;;;;;5072724;28;20077;-53
2022/12/14 08:50:46;;;;;;;24.52;15.10;;;3.10;68.70;;;;;;5069420;28;20867;-57
2022/12/14 08:53:12;;;;;;;22.40;15.73;;;3.20;68.80;;;;;;5069585;28;20042;-57
2022/12/14 08:55:38;;;;;;;20.80;14.90;;;3.20;68.70;;;;;;5064280;28;20028;-53
2022/12/14 08:58:03;;;;;;;22.42;14.70;;;3.20;68.40;;;;;;5052373;28;21279;-55
2022/12/14 09:00:29;;;;;;;21.42;14.13;;;3.20;68.10;;;;;;5068696;28;20032;-52
2022/12/14 09:02:54;;;;;;;16.10;12.63;;;3.20;67.90;;;;;;5075878;28;20051;-56
2022/12/14 09:05:21;;;;;;;17.00;12.13;;;3.30;68.20;;;;;;5077258;27;20028;-54
2022/12/14 09:07:47;;;;;;;16.52;11.82;;;3.30;68.30;;;;;;5064953;28;20201;-48
2022/12/14 09:10:13;;;;;;;16.00;12.00;;;3.30;68.20;;;;;;5073278;28;20047;-57
2022/12/14 09:12:39;;;;;;;16.60;12.02;;;3.40;68.00;;;;;;5072317;28;20032;-52
2022/12/14 09:15:06;;;;;;;15.82;12.25;;;3.40;67.80;;;;;;5068569;28;20087;-56
2022/12/14 09:17:32;;;;;;;18.20;12.05;;;3.40;67.80;;;;;;5063815;28;20036;-56
2022/12/14 09:19:58;;;;;;;17.15;12.10;;;3.40;67.90;;;;;;5069138;28;20069;-55
2022/12/14 09:22:23;;;;;;;16.98;12.57;;;3.50;67.90;;;;;;5079771;28;20116;-57
2022/12/14 09:24:51;;;;;;;17.88;12.40;;;3.50;67.60;;;;;;5079432;28;20047;-57
2022/12/14 09:27:17;;;;;;;16.38;11.70;;;3.50;67.50;;;;;;5069582;28;20029;-56
2022/12/14 09:29:43;;;;;;;17.70;12.27;;;3.50;67.60;;;;;;5069827;28;20057;-56
2022/12/14 09:32:09;;;;;;;15.88;12.02;;;3.50;67.60;;;;;;5050064;28;20034;-57
2022/12/14 09:34:34;;;;;;;13.80;11.00;;;3.60;67.60;;;;;;5072314;28;20031;-57
2022/12/14 09:37:03;;;;;;;19.40;13.70;;;3.60;67.50;;;;;;5062449;28;21095;-55
2022/12/14 09:39:30;;;;;;;16.25;11.80;;;3.70;67.50;;;;;;5056486;28;20042;-55
2022/12/14 09:41:59;;;;;;;16.55;11.68;;;3.70;67.60;;;;;;5072911;28;20036;-56
2022/12/14 09:44:49;;;;;;;17.35;12.63;;;3.80;67.60;;;;;;5080109;28;20039;-55
2022/12/14 09:47:27;;;;;;;18.60;12.82;;;3.80;67.40;;;;;;5065488;28;20036;-57
2022/12/14 09:49:59;;;;;;;17.95;12.07;;;3.80;67.30;;;;;;5071217;28;20031;-53
2022/12/14 09:53:01;;;;;;;18.08;13.07;;;3.80;66.90;;;;;;5066814;28;20512;-55
2022/12/14 09:55:36;;;;;;;17.33;12.13;;;3.70;66.80;;;;;;5052421;28;20942;-55
2022/12/14 09:58:19;;;;;;;21.15;13.50;;;3.60;67.00;;;;;;5054294;28;20064;-57
2022/12/14 10:00:58;;;;;;;19.77;14.20;;;3.60;67.20;;;;;;5064299;28;20452;-60
2022/12/14 10:03:46;;;;;;;22.00;15.40;;;3.50;67.20;;;;;;5068890;28;20051;-55
2022/12/14 10:07:53;;;;;;;22.20;15.25;;;3.40;66.40;;;;;;5032465;27;20501;-56
2022/12/14 10:10:26;;;;;;;22.10;16.38;;;3.40;66.90;;;;;;5028482;28;20035;-55
2022/12/14 10:13:28;;;;;;;22.13;15.88;;;3.40;67.00;;;;;;5022916;28;20036;-55
2022/12/14 10:16:30;;;;;;;21.70;15.85;;;3.50;67.20;;;;;;5031602;28;20072;-58
2022/12/14 10:19:34;;;;;;;22.75;15.57;;;3.50;67.20;;;;;;5026317;28;20041;-56
2022/12/14 10:22:01;;;;;;;24.58;15.57;;;3.50;67.10;;;;;;5023363;28;20037;-55
2022/12/14 10:24:40;;;;;;;23.10;15.68;;;3.50;67.10;;;;;;5031775;28;20041;-56
2022/12/14 10:27:08;;;;;;;22.52;15.63;;;3.50;66.90;;;;;;5032872;28;20080;-54
2022/12/14 10:29:42;;;;;;;22.85;16.27;;;3.50;66.90;;;;;;5043168;28;20028;-53
2022/12/14 10:32:18;;;;;;;23.92;16.90;;;3.50;67.50;;;;;;5036437;28;20032;-57
2022/12/14 10:34:44;;;;;;;22.83;15.98;;;3.50;66.90;;;;;;5040556;28;20048;-56
2022/12/14 10:37:13;;;;;;;24.30;15.43;;;3.40;67.10;;;;;;5041030;28;20041;-58
2022/12/14 10:40:10;;;;;;;19.90;13.82;;;3.30;67.20;;;;;;5027117;28;20033;-58
2022/12/14 10:42:51;;;;;;;21.48;14.98;;;3.30;67.30;;;;;;5035089;28;20562;-57
2022/12/14 10:45:27;;;;;;;17.85;13.18;;;3.30;67.60;;;;;;5038522;28;20048;-57
2022/12/14 10:48:03;;;;;;;17.15;11.77;;;3.40;67.70;;;;;;5032810;28;20077;-55
2022/12/14 10:50:52;;;;;;;16.23;11.93;;;3.50;67.70;;;;;;5028755;28;20206;-56
2022/12/14 10:53:30;;;;;;;15.95;11.45;;;3.50;67.60;;;;;;5039260;28;20151;-56
2022/12/14 10:56:02;;;;;;;15.27;11.07;;;3.60;67.60;;;;;;5036332;28;20029;-59
2022/12/14 10:58:28;;;;;;;15.95;10.77;;;3.70;67.60;;;;;;5030535;28;20054;-56
2022/12/14 11:00:54;;;;;;;15.25;10.40;;;3.70;67.70;;;;;;5041969;28;20037;-55
2022/12/14 11:03:20;;;;;;;14.20;10.23;;;3.80;67.40;;;;;;5034242;28;20041;-55
2022/12/14 11:05:56;;;;;;;13.63;11.30;;;3.90;67.30;;;;;;5037936;28;20095;-54
2022/12/14 11:08:44;;;;;;;17.95;11.88;;;4.00;67.10;;;;;;5042498;28;20107;-57
2022/12/14 11:11:23;;;;;;;17.58;12.63;;;4.00;66.70;;;;;;5041063;28;20059;-54
2022/12/14 11:14:09;;;;;;;16.25;11.63;;;4.00;66.50;;;;;;5041037;28;20754;-54
2022/12/14 11:16:38;;;;;;;14.27;11.23;;;3.80;66.30;;;;;;5041395;28;20037;-58
2022/12/14 11:19:17;;;;;;;13.95;10.48;;;3.80;66.50;;;;;;5030579;28;20708;-56
2022/12/14 11:21:43;;;;;;;12.40;9.38;;;3.70;66.60;;;;;;5032912;28;20033;-54
2022/12/14 11:24:30;;;;;;;17.52;11.43;;;3.70;66.80;;;;;;5029457;28;20471;-53
2022/12/14 11:27:01;;;;;;;11.38;9.10;;;3.60;66.90;;;;;;5024326;28;21391;-58
2022/12/14 11:29:34;;;;;;;15.77;10.73;;;3.60;67.30;;;;;;5027018;28;20035;-58
2022/12/14 11:32:00;;;;;;;11.32;9.00;;;3.60;67.30;;;;;;5022680;28;20509;-55
2022/12/14 11:34:37;;;;;;;15.63;10.23;;;3.70;67.30;;;;;;5026042;28;20036;-56
2022/12/14 11:37:21;;;;;;;17.60;11.35;;;3.70;67.20;;;;;;5031380;28;20148;-51
2022/12/14 11:39:59;;;;;;;15.65;10.95;;;3.80;67.00;;;;;;5030259;28;21639;-58
2022/12/14 11:42:26;;;;;;;15.15;11.23;;;3.80;66.90;;;;;;5032747;28;20052;-54
2022/12/14 11:44:53;;;;;;;14.60;10.27;;;3.80;66.80;;;;;;5027527;28;20927;-56
2022/12/14 11:47:22;;;;;;;17.80;11.35;;;3.80;66.80;;;;;;5029947;28;21452;-57
2022/12/14 11:49:53;;;;;;;14.88;10.50;;;3.80;67.00;;;;;;5031788;28;20137;-58
2022/12/14 11:52:24;;;;;;;211.95;118.53;;;3.70;66.70;;;;;;5022896;28;20115;-58
2022/12/14 11:54:56;;;;;;;31.90;22.63;;;3.70;66.90;;;;;;5027375;28;20052;-56
2022/12/14 11:57:31;;;;;;;22.88;17.45;;;3.70;67.10;;;;;;5029581;28;20889;-55
2022/12/14 12:00:20;;;;;;;22.23;16.15;;;3.80;67.00;;;;;;5033637;28;20047;-51
2022/12/14 12:02:53;;;;;;;21.88;15.50;;;3.80;67.00;;;;;;5027805;28;20057;-56
2022/12/14 12:05:22;;;;;;;19.70;14.73;;;3.90;67.10;;;;;;5025894;28;20037;-58
2022/12/14 12:07:54;;;;;;;23.05;16.20;;;3.90;66.90;;;;;;5023010;28;20094;-56
2022/12/14 12:10:43;;;;;;;24.10;18.45;;;4.00;66.90;;;;;;5033697;28;20160;-56
2022/12/14 12:13:34;;;;;;;27.20;19.48;;;4.10;66.80;;;;;;5037335;28;20474;-57
2022/12/14 12:16:21;;;;;;;25.33;18.25;;;4.10;66.70;;;;;;5033731;28;20113;-50
2022/12/14 12:18:52;;;;;;;22.10;17.33;;;4.20;66.60;;;;;;5025884;28;20755;-56
2022/12/14 12:21:23;;;;;;;19.48;15.38;;;4.30;66.30;;;;;;5027310;28;20036;-54
2022/12/14 12:23:57;;;;;;;20.05;15.55;;;4.30;66.10;;;;;;5022499;28;20122;-59
2022/12/14 12:26:50;;;;;;;21.45;16.15;;;4.30;66.00;;;;;;5034069;28;20037;-58
2022/12/14 12:29:28;;;;;;;22.73;15.75;;;4.30;65.90;;;;;;5029970;28;20120;-58
2022/12/14 12:32:02;;;;;;;20.38;14.73;;;4.20;65.90;;;;;;5019781;28;20029;-57
2022/12/14 12:34:46;;;;;;;23.38;16.05;;;4.10;66.20;;;;;;5027325;28;20029;-56
2022/12/14 12:37:19;;;;;;;18.60;14.23;;;4.10;66.40;;;;;;5020511;28;20091;-57
2022/12/14 12:39:50;;;;;;;22.92;15.27;;;4.10;66.50;;;;;;5029326;28;20063;-58
2022/12/14 12:42:34;;;;;;;20.90;15.40;;;4.00;66.50;;;;;;5031650;28;20033;-54
2022/12/14 12:45:24;;;;;;;20.40;15.02;;;4.00;66.50;;;;;;5030587;28;20541;-55
2022/12/14 12:47:59;;;;;;;23.85;16.27;;;4.00;66.60;;;;;;5020117;28;20041;-55
2022/12/14 12:50:31;;;;;;;22.45;15.52;;;4.00;66.50;;;;;;5015885;28;20057;-57
2022/12/14 12:53:10;;;;;;;22.40;15.90;;;3.90;66.20;;;;;;5020844;28;20122;-54
2022/12/14 12:55:47;;;;;;;23.00;17.27;;;3.90;66.30;;;;;;5016081;28;20041;-55
2022/12/14 12:58:20;;;;;;;21.75;16.02;;;3.90;66.20;;;;;;5013180;28;20033;-57
2022/12/14 13:00:50;;;;;;;25.23;16.73;;;3.90;66.10;;;;;;5015778;28;20032;-55
2022/12/14 13:03:23;;;;;;;23.30;16.55;;;3.90;66.00;;;;;;5010259;28;20032;-56
2022/12/14 13:05:52;;;;;;;23.13;16.13;;;3.80;66.10;;;;;;5012304;28;20060;-55
2022/12/14 13:08:35;;;;;;;21.17;14.43;;;3.80;66.20;;;;;;5012688;28;21403;-57
2022/12/14 13:11:08;;;;;;;23.92;17.48;;;3.80;66.30;;;;;;5021602;28;20086;-54
2022/12/14 13:13:38;;;;;;;25.67;17.83;;;3.70;66.30;;;;;;5019370;28;20152;-57
2022/12/14 13:16:28;;;;;;;26.88;17.65;;;3.70;66.20;;;;;;5021014;28;20033;-57
2022/12/14 13:19:00;;;;;;;26.65;17.63;;;3.70;66.20;;;;;;5029792;28;20041;-57
2022/12/14 13:21:33;;;;;;;24.08;16.63;;;3.70;66.30;;;;;;5027920;28;20099;-53
2022/12/14 13:24:00;;;;;;;22.27;17.05;;;3.70;66.30;;;;;;5023484;28;20083;-54
2022/12/14 13:26:25;;;;;;;21.23;15.00;;;3.60;66.20;;;;;;5022871;28;20033;-58
2022/12/14 13:29:20;;;;;;;21.27;14.93;;;3.60;66.20;;;;;;5032052;28;20029;-56
2022/12/14 13:32:31;;;;;;;23.48;15.25;;;3.60;66.30;;;;;;5026416;28;20040;-56